sensor_id;sensor_type;location;lat;lon;timestamp;temperature;humidity
32147;DHT22;32190;49.112;8.598;2024-03-02T00:04:48;10.40;58.60
32147;DHT22;32190;49.112;8.598;2024-03-02T00:10:49;10.30;58.60
32147;DHT22;32190;49.112;8.598;2024-03-02T00:16:42;10.30;58.70
32147;DHT22;32190;49.112;8.598;2024-03-02T00:22:36;10.30;58.70
32147;DHT22;32190;49.112;8.598;2024-03-02T00:28:35;10.30;58.80
32147;DHT22;32190;49.112;8.598;2024-03-02T00:34:26;10.20;58.70
32147;DHT22;32190;49.112;8.598;2024-03-02T00:40:17;10.30;58.70
32147;DHT22;32190;49.112;8.598;2024-03-02T00:46:17;10.20;58.40
32147;DHT22;32190;49.112;8.598;2024-03-02T00:52:09;10.20;58.60
32147;DHT22;32190;49.112;8.598;2024-03-02T00:58:00;10.20;58.60
32147;DHT22;32190;49.112;8.598;2024-03-02T01:03:51;10.10;58.60
32147;DHT22;32190;49.112;8.598;2024-03-02T01:09:41;10.10;58.60
32147;DHT22;32190;49.112;8.598;2024-03-02T01:15:32;10.10;58.60
32147;DHT22;32190;49.112;8.598;2024-03-02T01:21:29;10.00;58.50
32147;DHT22;32190;49.112;8.598;2024-03-02T01:27:19;10.00;58.50
32147;DHT22;32190;49.112;8.598;2024-03-02T01:33:10;9.90;58.60
32147;DHT22;32190;49.112;8.598;2024-03-02T01:39:01;9.90;58.60
32147;DHT22;32190;49.112;8.598;2024-03-02T01:44:51;9.90;58.60
32147;DHT22;32190;49.112;8.598;2024-03-02T01:50:42;9.90;58.60
32147;DHT22;32190;49.112;8.598;2024-03-02T01:56:36;9.80;58.60
32147;DHT22;32190;49.112;8.598;2024-03-02T02:02:27;9.80;58.60
32147;DHT22;32190;49.112;8.598;2024-03-02T02:08:17;9.80;58.60
32147;DHT22;32190;49.112;8.598;2024-03-02T02:14:08;9.70;58.50
32147;DHT22;32190;49.112;8.598;2024-03-02T02:20:08;9.70;58.60
32147;DHT22;32190;49.112;8.598;2024-03-02T02:25:59;9.70;58.60
32147;DHT22;32190;49.112;8.598;2024-03-02T02:31:50;9.60;58.50
32147;DHT22;32190;49.112;8.598;2024-03-02T02:37:45;9.60;58.50
32147;DHT22;32190;49.112;8.598;2024-03-02T02:43:37;9.50;58.50
32147;DHT22;32190;49.112;8.598;2024-03-02T02:49:31;9.40;58.60
32147;DHT22;32190;49.112;8.598;2024-03-02T02:55:21;9.40;58.60
32147;DHT22;32190;49.112;8.598;2024-03-02T03:01:12;9.40;58.60
32147;DHT22;32190;49.112;8.598;2024-03-02T03:07:02;9.30;58.50
32147;DHT22;32190;49.112;8.598;2024-03-02T03:12:53;9.30;58.60
32147;DHT22;32190;49.112;8.598;2024-03-02T03:18:46;9.30;58.70
32147;DHT22;32190;49.112;8.598;2024-03-02T03:24:37;9.20;58.80
32147;DHT22;32190;49.112;8.598;2024-03-02T03:30:31;9.30;58.90
32147;DHT22;32190;49.112;8.598;2024-03-02T03:36:22;9.20;58.90
32147;DHT22;32190;49.112;8.598;2024-03-02T03:42:15;9.20;58.90
32147;DHT22;32190;49.112;8.598;2024-03-02T03:48:06;9.20;59.00
32147;DHT22;32190;49.112;8.598;2024-03-02T03:53:57;9.20;59.00
32147;DHT22;32190;49.112;8.598;2024-03-02T03:59:47;9.10;58.90
32147;DHT22;32190;49.112;8.598;2024-03-02T04:05:38;9.20;59.00
32147;DHT22;32190;49.112;8.598;2024-03-02T04:11:28;9.20;59.00
32147;DHT22;32190;49.112;8.598;2024-03-02T04:17:19;9.10;59.00
32147;DHT22;32190;49.112;8.598;2024-03-02T04:23:09;9.10;59.00
32147;DHT22;32190;49.112;8.598;2024-03-02T04:29:00;9.10;59.00
32147;DHT22;32190;49.112;8.598;2024-03-02T04:34:52;9.10;59.00
32147;DHT22;32190;49.112;8.598;2024-03-02T04:40:42;9.00;59.00
32147;DHT22;32190;49.112;8.598;2024-03-02T04:46:33;9.00;59.00
32147;DHT22;32190;49.112;8.598;2024-03-02T04:52:23;9.00;59.10
32147;DHT22;32190;49.112;8.598;2024-03-02T04:58:14;9.00;59.10
32147;DHT22;32190;49.112;8.598;2024-03-02T05:04:04;9.00;59.10
32147;DHT22;32190;49.112;8.598;2024-03-02T05:09:55;9.00;59.10
32147;DHT22;32190;49.112;8.598;2024-03-02T05:15:46;8.90;59.20
32147;DHT22;32190;49.112;8.598;2024-03-02T05:21:37;8.90;59.20
32147;DHT22;32190;49.112;8.598;2024-03-02T05:27:27;8.90;59.20
32147;DHT22;32190;49.112;8.598;2024-03-02T05:33:18;8.90;59.20
32147;DHT22;32190;49.112;8.598;2024-03-02T05:39:09;8.90;59.10
32147;DHT22;32190;49.112;8.598;2024-03-02T05:45:00;8.90;59.10
32147;DHT22;32190;49.112;8.598;2024-03-02T05:50:51;8.90;58.90
32147;DHT22;32190;49.112;8.598;2024-03-02T05:56:42;8.70;58.80
32147;DHT22;32190;49.112;8.598;2024-03-02T06:02:32;8.70;59.00
32147;DHT22;32190;49.112;8.598;2024-03-02T06:08:23;8.50;59.10
32147;DHT22;32190;49.112;8.598;2024-03-02T06:14:13;8.50;59.10
32147;DHT22;32190;49.112;8.598;2024-03-02T06:20:04;8.50;59.20
32147;DHT22;32190;49.112;8.598;2024-03-02T06:25:55;8.50;59.20
32147;DHT22;32190;49.112;8.598;2024-03-02T06:31:45;8.50;59.20
32147;DHT22;32190;49.112;8.598;2024-03-02T06:37:37;8.50;59.50
32147;DHT22;32190;49.112;8.598;2024-03-02T06:43:28;8.50;59.30
32147;DHT22;32190;49.112;8.598;2024-03-02T06:49:19;8.50;59.40
32147;DHT22;32190;49.112;8.598;2024-03-02T06:55:09;8.50;59.40
32147;DHT22;32190;49.112;8.598;2024-03-02T07:01:00;8.50;59.40
32147;DHT22;32190;49.112;8.598;2024-03-02T07:06:50;8.50;59.40
32147;DHT22;32190;49.112;8.598;2024-03-02T07:12:41;8.50;59.40
32147;DHT22;32190;49.112;8.598;2024-03-02T07:18:32;8.50;59.50
32147;DHT22;32190;49.112;8.598;2024-03-02T07:24:23;8.40;59.50
32147;DHT22;32190;49.112;8.598;2024-03-02T07:30:14;8.40;59.60
32147;DHT22;32190;49.112;8.598;2024-03-02T07:36:29;8.50;59.70
32147;DHT22;32190;49.112;8.598;2024-03-02T07:42:20;8.50;59.80
32147;DHT22;32190;49.112;8.598;2024-03-02T07:48:10;8.50;59.60
32147;DHT22;32190;49.112;8.598;2024-03-02T07:54:03;8.50;59.60
32147;DHT22;32190;49.112;8.598;2024-03-02T07:59:53;8.60;60.10
32147;DHT22;32190;49.112;8.598;2024-03-02T08:05:44;8.60;60.40
32147;DHT22;32190;49.112;8.598;2024-03-02T08:11:35;8.60;60.80
32147;DHT22;32190;49.112;8.598;2024-03-02T08:17:34;8.70;61.20
32147;DHT22;32190;49.112;8.598;2024-03-02T08:23:25;8.70;61.40
32147;DHT22;32190;49.112;8.598;2024-03-02T08:29:15;8.90;61.30
32147;DHT22;32190;49.112;8.598;2024-03-02T08:35:06;8.90;61.40
32147;DHT22;32190;49.112;8.598;2024-03-02T08:40:57;9.00;61.60
32147;DHT22;32190;49.112;8.598;2024-03-02T08:46:48;9.10;61.70
32147;DHT22;32190;49.112;8.598;2024-03-02T08:52:46;9.20;62.00
32147;DHT22;32190;49.112;8.598;2024-03-02T08:58:36;9.40;62.30
32147;DHT22;32190;49.112;8.598;2024-03-02T09:04:28;9.50;62.20
32147;DHT22;32190;49.112;8.598;2024-03-02T09:10:19;9.60;62.10
32147;DHT22;32190;49.112;8.598;2024-03-02T09:16:09;9.80;62.00
32147;DHT22;32190;49.112;8.598;2024-03-02T09:22:01;9.90;62.00
32147;DHT22;32190;49.112;8.598;2024-03-02T09:27:53;10.10;62.10
32147;DHT22;32190;49.112;8.598;2024-03-02T09:33:44;10.30;62.00
32147;DHT22;32190;49.112;8.598;2024-03-02T09:39:34;10.40;61.80
32147;DHT22;32190;49.112;8.598;2024-03-02T09:45:26;10.60;61.80
32147;DHT22;32190;49.112;8.598;2024-03-02T09:51:19;10.80;61.70
32147;DHT22;32190;49.112;8.598;2024-03-02T09:57:10;11.00;61.60
32147;DHT22;32190;49.112;8.598;2024-03-02T10:03:00;11.20;61.30
32147;DHT22;32190;49.112;8.598;2024-03-02T10:08:53;11.30;61.10
32147;DHT22;32190;49.112;8.598;2024-03-02T10:14:45;11.50;60.80
32147;DHT22;32190;49.112;8.598;2024-03-02T10:20:40;11.70;61.10
32147;DHT22;32190;49.112;8.598;2024-03-02T10:26:34;11.80;60.40
32147;DHT22;32190;49.112;8.598;2024-03-02T10:32:24;12.00;59.70
32147;DHT22;32190;49.112;8.598;2024-03-02T10:38:15;12.10;59.70
32147;DHT22;32190;49.112;8.598;2024-03-02T10:44:08;12.20;59.70
32147;DHT22;32190;49.112;8.598;2024-03-02T10:49:59;12.40;59.60
32147;DHT22;32190;49.112;8.598;2024-03-02T10:55:55;12.60;59.30
32147;DHT22;32190;49.112;8.598;2024-03-02T11:01:48;12.80;58.70
32147;DHT22;32190;49.112;8.598;2024-03-02T11:07:39;12.90;58.60
32147;DHT22;32190;49.112;8.598;2024-03-02T11:13:31;13.10;58.40
32147;DHT22;32190;49.112;8.598;2024-03-02T11:19:23;13.30;58.00
32147;DHT22;32190;49.112;8.598;2024-03-02T11:31:15;13.60;57.20
32147;DHT22;32190;49.112;8.598;2024-03-02T11:37:06;13.80;57.40
32147;DHT22;32190;49.112;8.598;2024-03-02T11:42:57;14.00;57.10
32147;DHT22;32190;49.112;8.598;2024-03-02T11:48:49;14.30;56.60
32147;DHT22;32190;49.112;8.598;2024-03-02T11:54:42;14.50;56.40
32147;DHT22;32190;49.112;8.598;2024-03-02T12:00:37;14.70;56.00
32147;DHT22;32190;49.112;8.598;2024-03-02T12:06:30;14.70;55.80
32147;DHT22;32190;49.112;8.598;2024-03-02T12:12:21;14.90;55.40
32147;DHT22;32190;49.112;8.598;2024-03-02T12:18:12;15.00;55.40
32147;DHT22;32190;49.112;8.598;2024-03-02T12:24:03;15.10;55.30
32147;DHT22;32190;49.112;8.598;2024-03-02T12:29:54;15.20;55.30
32147;DHT22;32190;49.112;8.598;2024-03-02T12:35:44;15.30;54.80
32147;DHT22;32190;49.112;8.598;2024-03-02T12:41:36;15.50;55.00
32147;DHT22;32190;49.112;8.598;2024-03-02T12:47:28;15.60;54.50
32147;DHT22;32190;49.112;8.598;2024-03-02T12:53:18;15.60;54.60
32147;DHT22;32190;49.112;8.598;2024-03-02T12:59:09;15.80;54.40
32147;DHT22;32190;49.112;8.598;2024-03-02T13:05:01;15.90;54.30
32147;DHT22;32190;49.112;8.598;2024-03-02T13:10:51;16.00;54.20
32147;DHT22;32190;49.112;8.598;2024-03-02T13:16:44;16.00;54.10
32147;DHT22;32190;49.112;8.598;2024-03-02T13:22:34;16.00;53.50
32147;DHT22;32190;49.112;8.598;2024-03-02T13:28:25;16.10;53.20
32147;DHT22;32190;49.112;8.598;2024-03-02T13:34:16;16.30;53.40
32147;DHT22;32190;49.112;8.598;2024-03-02T13:40:07;16.50;52.90
32147;DHT22;32190;49.112;8.598;2024-03-02T13:46:03;16.60;52.30
32147;DHT22;32190;49.112;8.598;2024-03-02T13:51:54;16.70;52.40
32147;DHT22;32190;49.112;8.598;2024-03-02T13:57:46;16.80;52.20
32147;DHT22;32190;49.112;8.598;2024-03-02T14:03:37;16.90;52.20
32147;DHT22;32190;49.112;8.598;2024-03-02T14:09:30;16.90;52.00
32147;DHT22;32190;49.112;8.598;2024-03-02T14:15:23;17.00;51.60
32147;DHT22;32190;49.112;8.598;2024-03-02T14:21:14;17.00;51.90
32147;DHT22;32190;49.112;8.598;2024-03-02T14:27:07;17.00;51.60
32147;DHT22;32190;49.112;8.598;2024-03-02T14:32:58;17.10;51.40
32147;DHT22;32190;49.112;8.598;2024-03-02T14:38:49;17.20;51.20
32147;DHT22;32190;49.112;8.598;2024-03-02T14:44:46;17.20;50.90
32147;DHT22;32190;49.112;8.598;2024-03-02T14:50:39;17.30;50.40
32147;DHT22;32190;49.112;8.598;2024-03-02T14:56:29;17.30;50.90
32147;DHT22;32190;49.112;8.598;2024-03-02T15:02:20;17.30;51.30
32147;DHT22;32190;49.112;8.598;2024-03-02T15:08:11;17.30;51.40
32147;DHT22;32190;49.112;8.598;2024-03-02T15:14:02;17.20;51.10
32147;DHT22;32190;49.112;8.598;2024-03-02T15:19:53;17.10;51.50
32147;DHT22;32190;49.112;8.598;2024-03-02T15:25:44;17.00;51.60
32147;DHT22;32190;49.112;8.598;2024-03-02T15:31:35;16.90;51.90
32147;DHT22;32190;49.112;8.598;2024-03-02T15:37:25;16.80;51.90
32147;DHT22;32190;49.112;8.598;2024-03-02T15:43:16;16.70;52.40
32147;DHT22;32190;49.112;8.598;2024-03-02T15:49:06;16.60;52.60
32147;DHT22;32190;49.112;8.598;2024-03-02T15:54:58;16.50;52.70
32147;DHT22;32190;49.112;8.598;2024-03-02T16:00:48;16.40;52.90
32147;DHT22;32190;49.112;8.598;2024-03-02T16:06:39;16.30;53.10
32147;DHT22;32190;49.112;8.598;2024-03-02T16:12:30;16.30;53.30
32147;DHT22;32190;49.112;8.598;2024-03-02T16:18:20;16.20;53.30
32147;DHT22;32190;49.112;8.598;2024-03-02T16:24:14;16.20;53.20
32147;DHT22;32190;49.112;8.598;2024-03-02T16:30:05;16.10;53.50
32147;DHT22;32190;49.112;8.598;2024-03-02T16:35:56;16.00;53.60
32147;DHT22;32190;49.112;8.598;2024-03-02T16:41:47;16.00;53.80
32147;DHT22;32190;49.112;8.598;2024-03-02T16:47:39;15.90;53.60
32147;DHT22;32190;49.112;8.598;2024-03-02T16:53:29;15.90;53.70
32147;DHT22;32190;49.112;8.598;2024-03-02T16:59:20;15.80;53.80
32147;DHT22;32190;49.112;8.598;2024-03-02T17:05:11;15.80;54.00
32147;DHT22;32190;49.112;8.598;2024-03-02T17:11:12;15.70;53.90
32147;DHT22;32190;49.112;8.598;2024-03-02T17:17:03;15.60;53.90
32147;DHT22;32190;49.112;8.598;2024-03-02T17:22:53;15.60;54.00
32147;DHT22;32190;49.112;8.598;2024-03-02T17:28:44;15.50;53.90
32147;DHT22;32190;49.112;8.598;2024-03-02T17:34:35;15.50;54.80
32147;DHT22;32190;49.112;8.598;2024-03-02T17:40:26;15.40;54.40
32147;DHT22;32190;49.112;8.598;2024-03-02T17:46:16;15.30;54.40
32147;DHT22;32190;49.112;8.598;2024-03-02T17:52:07;15.30;54.50
32147;DHT22;32190;49.112;8.598;2024-03-02T17:57:57;15.30;54.30
32147;DHT22;32190;49.112;8.598;2024-03-02T18:03:48;15.30;54.40
32147;DHT22;32190;49.112;8.598;2024-03-02T18:09:38;15.20;54.50
32147;DHT22;32190;49.112;8.598;2024-03-02T18:15:29;15.20;54.70
32147;DHT22;32190;49.112;8.598;2024-03-02T18:21:23;15.20;54.80
32147;DHT22;32190;49.112;8.598;2024-03-02T18:27:13;15.20;54.60
32147;DHT22;32190;49.112;8.598;2024-03-02T18:33:07;15.20;54.40
32147;DHT22;32190;49.112;8.598;2024-03-02T18:38:57;15.20;54.60
32147;DHT22;32190;49.112;8.598;2024-03-02T18:44:48;15.30;54.40
32147;DHT22;32190;49.112;8.598;2024-03-02T18:50:40;15.20;54.50
32147;DHT22;32190;49.112;8.598;2024-03-02T18:56:30;15.20;54.50
32147;DHT22;32190;49.112;8.598;2024-03-02T19:02:21;15.10;54.30
32147;DHT22;32190;49.112;8.598;2024-03-02T19:08:11;15.10;54.10
32147;DHT22;32190;49.112;8.598;2024-03-02T19:14:07;15.00;53.90
32147;DHT22;32190;49.112;8.598;2024-03-02T19:19:58;15.00;54.10
32147;DHT22;32190;49.112;8.598;2024-03-02T19:25:49;14.90;54.20
32147;DHT22;32190;49.112;8.598;2024-03-02T19:31:39;14.90;54.20
32147;DHT22;32190;49.112;8.598;2024-03-02T19:37:30;14.90;54.20
32147;DHT22;32190;49.112;8.598;2024-03-02T19:43:23;14.80;54.20
32147;DHT22;32190;49.112;8.598;2024-03-02T19:49:14;14.70;54.40
32147;DHT22;32190;49.112;8.598;2024-03-02T19:55:06;14.50;54.60
32147;DHT22;32190;49.112;8.598;2024-03-02T20:00:56;14.50;55.00
32147;DHT22;32190;49.112;8.598;2024-03-02T20:06:51;14.40;55.10
32147;DHT22;32190;49.112;8.598;2024-03-02T20:12:45;14.50;55.30
32147;DHT22;32190;49.112;8.598;2024-03-02T20:18:36;14.50;55.20
32147;DHT22;32190;49.112;8.598;2024-03-02T20:24:27;14.50;55.20
32147;DHT22;32190;49.112;8.598;2024-03-02T20:30:18;14.60;55.40
32147;DHT22;32190;49.112;8.598;2024-03-02T20:36:15;14.60;55.60
32147;DHT22;32190;49.112;8.598;2024-03-02T20:42:06;14.60;56.00
32147;DHT22;32190;49.112;8.598;2024-03-02T20:47:57;14.50;55.80
32147;DHT22;32190;49.112;8.598;2024-03-02T20:53:47;14.50;56.00
32147;DHT22;32190;49.112;8.598;2024-03-02T20:59:38;14.50;56.00
32147;DHT22;32190;49.112;8.598;2024-03-02T21:05:29;14.50;56.10
32147;DHT22;32190;49.112;8.598;2024-03-02T21:11:19;14.50;56.10
32147;DHT22;32190;49.112;8.598;2024-03-02T21:17:12;14.50;56.20
32147;DHT22;32190;49.112;8.598;2024-03-02T21:23:02;14.50;56.30
32147;DHT22;32190;49.112;8.598;2024-03-02T21:28:53;14.50;56.20
32147;DHT22;32190;49.112;8.598;2024-03-02T21:34:44;14.50;56.20
32147;DHT22;32190;49.112;8.598;2024-03-02T21:40:34;14.50;56.30
32147;DHT22;32190;49.112;8.598;2024-03-02T21:46:26;14.50;56.30
32147;DHT22;32190;49.112;8.598;2024-03-02T21:52:16;14.50;56.40
32147;DHT22;32190;49.112;8.598;2024-03-02T21:58:07;14.50;56.40
32147;DHT22;32190;49.112;8.598;2024-03-02T22:03:57;14.40;56.30
32147;DHT22;32190;49.112;8.598;2024-03-02T22:09:48;14.40;56.30
32147;DHT22;32190;49.112;8.598;2024-03-02T22:15:39;14.50;56.40
32147;DHT22;32190;49.112;8.598;2024-03-02T22:21:29;14.40;56.30
32147;DHT22;32190;49.112;8.598;2024-03-02T22:27:22;14.40;56.30
32147;DHT22;32190;49.112;8.598;2024-03-02T22:33:21;14.30;56.30
32147;DHT22;32190;49.112;8.598;2024-03-02T22:39:11;14.30;56.60
32147;DHT22;32190;49.112;8.598;2024-03-02T22:45:02;14.30;56.60
32147;DHT22;32190;49.112;8.598;2024-03-02T22:50:52;14.20;56.60
32147;DHT22;32190;49.112;8.598;2024-03-02T22:56:43;14.20;56.60
32147;DHT22;32190;49.112;8.598;2024-03-02T23:02:35;14.20;56.60
32147;DHT22;32190;49.112;8.598;2024-03-02T23:08:26;14.10;56.60
32147;DHT22;32190;49.112;8.598;2024-03-02T23:14:17;14.10;56.70
32147;DHT22;32190;49.112;8.598;2024-03-02T23:20:07;14.10;57.40
32147;DHT22;32190;49.112;8.598;2024-03-02T23:26:01;14.00;56.80
32147;DHT22;32190;49.112;8.598;2024-03-02T23:31:52;14.00;56.80
32147;DHT22;32190;49.112;8.598;2024-03-02T23:37:43;13.90;56.80
32147;DHT22;32190;49.112;8.598;2024-03-02T23:43:35;13.90;56.90
32147;DHT22;32190;49.112;8.598;2024-03-02T23:49:26;13.90;57.00
32147;DHT22;32190;49.112;8.598;2024-03-02T23:55:16;13.80;57.00
